createdAt,value
2017-08-13T00:00:17.685Z,86.51
2017-08-13T00:02:44.102Z,86.49
2017-08-13T00:05:10.458Z,86.36
2017-08-13T00:07:36.844Z,86.49
2017-08-13T00:10:03.237Z,86.75
2017-08-13T00:12:29.618Z,86.57
2017-08-13T00:14:55.998Z,86.71
2017-08-13T00:17:22.369Z,86.85
2017-08-13T00:19:48.760Z,86.39
2017-08-13T00:22:15.139Z,86.79
2017-08-13T00:24:41.544Z,86.73
2017-08-13T00:27:07.909Z,86.81
2017-08-13T00:29:34.303Z,87.17
2017-08-13T00:32:00.697Z,86.67
2017-08-13T00:34:27.085Z,86.41
2017-08-13T00:36:53.451Z,86.86
2017-08-13T00:39:19.827Z,86.31
2017-08-13T00:41:46.229Z,86.38
2017-08-13T00:44:12.637Z,86.03
2017-08-13T00:46:39.020Z,85.98
2017-08-13T00:49:05.437Z,86.35
2017-08-13T00:51:31.878Z,86.46
2017-08-13T00:53:58.267Z,86.36
2017-08-13T00:56:24.677Z,86.58
2017-08-13T00:58:51.084Z,86.21
2017-08-13T01:01:17.507Z,86.12
2017-08-13T01:03:43.870Z,86.43
2017-08-13T01:06:10.235Z,86.60
2017-08-13T01:08:36.615Z,86.27
2017-08-13T01:11:03.021Z,86.16
2017-08-13T01:13:29.405Z,86.39
2017-08-13T01:15:55.792Z,86.73
2017-08-13T01:18:22.139Z,86.85
2017-08-13T01:20:48.570Z,86.97
2017-08-13T01:23:14.960Z,86.63
2017-08-13T01:25:41.327Z,86.22
2017-08-13T01:28:07.718Z,86.52
2017-08-13T01:30:34.105Z,86.59
2017-08-13T01:33:00.484Z,86.11
2017-08-13T01:35:26.864Z,86.48
2017-08-13T01:37:53.233Z,86.31
2017-08-13T01:40:19.631Z,86.58
2017-08-13T01:42:46.015Z,87.07
2017-08-13T01:45:12.424Z,87.23
2017-08-13T01:47:38.800Z,86.83
2017-08-13T01:50:05.172Z,86.79
2017-08-13T01:52:31.543Z,86.87
2017-08-13T01:54:57.905Z,87.00
2017-08-13T01:57:24.281Z,86.58
2017-08-13T01:59:50.670Z,86.70
2017-08-13T02:02:17.036Z,86.98
2017-08-13T02:04:43.416Z,86.86
2017-08-13T02:07:09.769Z,86.81
2017-08-13T02:09:36.118Z,87.07
2017-08-13T02:12:02.527Z,86.88
2017-08-13T02:14:28.893Z,86.53
2017-08-13T02:16:55.277Z,86.39
2017-08-13T02:19:21.648Z,87.16
2017-08-13T02:21:48.043Z,87.19
2017-08-13T02:24:14.426Z,86.90
2017-08-13T02:26:40.797Z,86.46
2017-08-13T02:29:07.177Z,86.62
2017-08-13T02:31:33.569Z,87.22
2017-08-13T02:33:59.955Z,86.86
2017-08-13T02:36:26.333Z,87.02
2017-08-13T02:38:52.711Z,86.84
2017-08-13T02:41:19.084Z,86.94
2017-08-13T02:43:45.466Z,86.32
2017-08-13T02:46:11.879Z,86.35
2017-08-13T02:48:38.248Z,86.33
2017-08-13T02:51:04.613Z,86.53
2017-08-13T02:53:30.976Z,86.38
2017-08-13T02:55:57.318Z,86.61
2017-08-13T02:58:23.683Z,86.79
2017-08-13T03:00:50.082Z,86.50
2017-08-13T03:03:16.484Z,86.78
2017-08-13T03:05:42.839Z,86.50
2017-08-13T03:08:09.209Z,86.48
2017-08-13T03:10:35.571Z,86.89
2017-08-13T03:13:01.942Z,86.58
2017-08-13T03:15:28.316Z,86.98
2017-08-13T03:17:54.711Z,86.83
2017-08-13T03:20:21.118Z,86.55
2017-08-13T03:22:47.485Z,86.39
2017-08-13T03:25:13.847Z,86.50
2017-08-13T03:27:40.213Z,86.70
2017-08-13T03:30:06.570Z,86.79
2017-08-13T03:32:32.939Z,86.39
2017-08-13T03:34:59.324Z,86.67
2017-08-13T03:37:25.685Z,86.54
2017-08-13T03:39:52.067Z,86.35
2017-08-13T03:42:18.434Z,85.97
2017-08-13T03:44:44.826Z,86.39
2017-08-13T03:47:11.217Z,86.31
2017-08-13T03:49:37.579Z,86.82
2017-08-13T03:52:03.960Z,86.11
2017-08-13T03:54:30.303Z,86.17
2017-08-13T03:56:56.690Z,86.39
2017-08-13T03:59:23.061Z,85.94
2017-08-13T04:01:49.421Z,85.92
2017-08-13T04:04:15.797Z,86.08
2017-08-13T04:06:45.762Z,86.22
2017-08-13T04:09:12.132Z,86.25
2017-08-13T04:11:38.578Z,85.93
2017-08-13T04:14:04.936Z,85.60
2017-08-13T04:16:31.318Z,85.81
2017-08-13T04:18:57.693Z,86.09
2017-08-13T04:21:24.050Z,85.44
2017-08-13T04:23:50.415Z,85.65
2017-08-13T04:26:16.758Z,85.93
2017-08-13T04:28:43.122Z,85.73
2017-08-13T04:31:09.494Z,85.48
2017-08-13T04:33:35.882Z,85.96
2017-08-13T04:36:02.239Z,86.31
2017-08-13T04:38:28.615Z,86.25
2017-08-13T04:40:55.029Z,86.12
2017-08-13T04:43:21.416Z,85.51
2017-08-13T04:45:47.812Z,85.48
2017-08-13T04:48:14.181Z,85.87
2017-08-13T04:50:40.587Z,86.35
2017-08-13T04:53:06.972Z,86.04
2017-08-13T04:55:33.376Z,86.17
2017-08-13T04:57:59.767Z,86.02
2017-08-13T05:00:26.117Z,86.12
2017-08-13T05:02:52.505Z,86.09
2017-08-13T05:05:18.881Z,85.61
2017-08-13T05:07:45.292Z,86.29
2017-08-13T05:10:11.706Z,86.72
2017-08-13T05:12:38.079Z,86.81
2017-08-13T05:15:04.447Z,86.13
2017-08-13T05:17:30.839Z,86.58
2017-08-13T05:19:57.240Z,86.45
2017-08-13T05:22:23.599Z,86.26
2017-08-13T05:24:49.960Z,86.75
2017-08-13T05:27:16.347Z,86.56
2017-08-13T05:29:42.699Z,86.22
2017-08-13T05:32:09.042Z,86.43
2017-08-13T05:34:35.428Z,86.56
2017-08-13T05:37:02.682Z,86.75
2017-08-13T05:39:29.073Z,87.49
2017-08-13T05:41:55.436Z,87.09
2017-08-13T05:44:21.845Z,86.84
2017-08-13T05:46:48.243Z,86.43
2017-08-13T05:49:14.625Z,87.06
2017-08-13T05:51:40.958Z,87.06
2017-08-13T05:54:07.324Z,86.85
2017-08-13T05:56:33.698Z,87.50
2017-08-13T05:59:00.462Z,87.68
2017-08-13T06:01:27.888Z,87.33
2017-08-13T06:03:54.233Z,86.88
2017-08-13T06:06:20.629Z,86.74
2017-08-13T06:08:47.020Z,87.24
2017-08-13T06:11:13.377Z,87.34
2017-08-13T06:13:39.750Z,87.14
2017-08-13T06:16:06.128Z,87.26
2017-08-13T06:18:32.525Z,87.20
2017-08-13T06:20:58.903Z,87.33
2017-08-13T06:23:25.296Z,87.32
2017-08-13T06:25:51.687Z,87.43
2017-08-13T06:28:18.088Z,87.29
2017-08-13T06:30:44.497Z,87.23
2017-08-13T06:33:10.897Z,86.93
2017-08-13T06:35:37.247Z,86.70
2017-08-13T06:38:03.603Z,86.35
2017-08-13T06:40:30.001Z,86.35
2017-08-13T06:42:56.700Z,85.91
2017-08-13T06:45:23.075Z,85.57
2017-08-13T06:47:49.511Z,85.46
2017-08-13T06:50:15.908Z,85.80
2017-08-13T06:52:42.329Z,85.32
2017-08-13T06:55:08.687Z,85.34
2017-08-13T06:57:35.073Z,85.11
2017-08-13T07:00:01.487Z,85.28
2017-08-13T07:02:27.862Z,85.20
2017-08-13T07:04:54.213Z,84.96
2017-08-13T07:07:20.571Z,84.96
2017-08-13T07:09:46.968Z,84.63
2017-08-13T07:12:13.398Z,84.78
2017-08-13T07:14:39.747Z,84.39
2017-08-13T07:17:06.143Z,84.57
2017-08-13T07:19:32.543Z,84.28
2017-08-13T07:21:58.910Z,84.45
2017-08-13T07:24:25.285Z,84.52
2017-08-13T07:26:51.659Z,83.99
2017-08-13T07:29:18.045Z,84.12
2017-08-13T07:31:44.441Z,83.41
2017-08-13T07:34:10.847Z,82.70
2017-08-13T07:36:37.242Z,80.07
2017-08-13T07:39:04.006Z,79.66
2017-08-13T07:41:30.873Z,76.41
2017-08-13T07:43:57.257Z,76.68
2017-08-13T07:46:23.667Z,78.93
2017-08-13T07:48:50.073Z,76.67
2017-08-13T07:51:16.464Z,75.02
2017-08-13T07:53:42.863Z,75.90
2017-08-13T07:56:09.227Z,76.90
2017-08-13T07:58:35.598Z,74.54
2017-08-13T08:01:02.173Z,72.87
2017-08-13T08:03:29.436Z,75.87
2017-08-13T08:05:55.888Z,71.89
2017-08-13T08:08:22.289Z,73.42
2017-08-13T08:10:48.746Z,74.96
2017-08-13T08:13:15.137Z,75.52
2017-08-13T08:15:41.532Z,75.41
2017-08-13T08:18:07.950Z,71.94
2017-08-13T08:20:34.324Z,73.66
2017-08-13T08:23:00.716Z,70.95
2017-08-13T08:25:27.106Z,69.26
2017-08-13T08:27:53.511Z,64.62
2017-08-13T08:30:19.913Z,66.57
2017-08-13T08:32:46.296Z,66.42
2017-08-13T08:35:12.677Z,67.28
2017-08-13T08:37:39.064Z,68.07
2017-08-13T08:40:05.606Z,68.19
2017-08-13T08:42:31.989Z,68.36
2017-08-13T08:44:58.375Z,65.68
2017-08-13T08:47:24.780Z,64.26
2017-08-13T08:49:51.157Z,65.22
2017-08-13T08:52:17.528Z,64.64
2017-08-13T08:54:43.920Z,64.56
2017-08-13T08:57:10.327Z,66.83
2017-08-13T08:59:36.722Z,63.60
2017-08-13T09:02:03.132Z,64.00
2017-08-13T09:04:29.491Z,64.29
2017-08-13T09:06:55.881Z,64.20
2017-08-13T09:09:22.248Z,62.25
2017-08-13T09:11:48.644Z,61.10
2017-08-13T09:14:15.035Z,63.44
2017-08-13T09:16:41.438Z,63.07
2017-08-13T09:19:07.821Z,64.34
2017-08-13T09:21:34.221Z,59.18
2017-08-13T09:24:00.614Z,59.16
2017-08-13T09:26:27.003Z,58.20
2017-08-13T09:28:53.386Z,59.16
2017-08-13T09:31:19.763Z,60.24
2017-08-13T09:33:46.145Z,60.89
2017-08-13T09:36:12.544Z,61.58
2017-08-13T09:38:38.934Z,61.57
2017-08-13T09:41:05.312Z,64.30
2017-08-13T09:43:31.686Z,65.26
2017-08-13T09:45:58.038Z,65.24
2017-08-13T09:48:24.433Z,66.28
2017-08-13T09:50:50.798Z,68.27
2017-08-13T09:53:17.186Z,67.31
2017-08-13T09:55:43.555Z,67.42
2017-08-13T09:58:09.967Z,66.79
2017-08-13T10:00:36.344Z,65.63
2017-08-13T10:03:02.744Z,64.51
2017-08-13T10:05:29.129Z,65.14
2017-08-13T10:07:55.518Z,63.72
2017-08-13T10:10:21.928Z,64.78
2017-08-13T10:12:48.329Z,62.30
2017-08-13T10:15:14.729Z,61.75
2017-08-13T10:17:41.150Z,61.73
2017-08-13T10:20:07.857Z,60.29
2017-08-13T10:22:34.256Z,59.45
2017-08-13T10:25:00.675Z,57.05
2017-08-13T10:27:27.087Z,57.70
2017-08-13T10:29:53.500Z,56.08
2017-08-13T10:32:19.901Z,56.83
2017-08-13T10:34:46.273Z,55.22
2017-08-13T10:37:12.666Z,55.87
2017-08-13T10:39:39.050Z,56.17
2017-08-13T10:42:05.429Z,58.96
2017-08-13T10:44:31.824Z,56.22
2017-08-13T10:46:58.585Z,56.43
2017-08-13T10:49:25.015Z,58.25
2017-08-13T10:51:51.410Z,56.75
2017-08-13T10:54:17.815Z,57.47
2017-08-13T10:56:44.217Z,58.10
2017-08-13T10:59:10.899Z,56.52
2017-08-13T11:01:38.168Z,51.72
2017-08-13T11:04:04.639Z,51.10
2017-08-13T11:06:31.056Z,49.06
2017-08-13T11:08:57.909Z,49.36
2017-08-13T11:11:24.309Z,52.85
2017-08-13T11:13:50.710Z,50.47
2017-08-13T11:16:17.127Z,51.71
2017-08-13T11:18:43.527Z,53.00
2017-08-13T11:21:09.950Z,55.13
2017-08-13T11:23:36.336Z,55.23
2017-08-13T11:26:02.755Z,56.31
2017-08-13T11:28:29.157Z,56.35
2017-08-13T11:30:55.568Z,57.56
2017-08-13T11:33:21.995Z,56.40
2017-08-13T11:35:48.407Z,57.76
2017-08-13T11:38:14.809Z,58.52
2017-08-13T11:40:41.268Z,58.36
2017-08-13T11:43:07.698Z,59.25
2017-08-13T11:45:34.210Z,59.16
2017-08-13T11:48:00.627Z,58.09
2017-08-13T11:50:27.004Z,59.97
2017-08-13T11:52:53.404Z,57.65
2017-08-13T11:55:19.853Z,58.25
2017-08-13T11:57:46.247Z,57.88
2017-08-13T12:00:12.667Z,58.14
2017-08-13T12:02:39.054Z,58.32
2017-08-13T12:05:05.439Z,55.43
2017-08-13T12:07:31.820Z,55.76
2017-08-13T12:09:58.384Z,57.18
2017-08-13T12:12:25.188Z,54.33
2017-08-13T12:14:51.564Z,56.30
2017-08-13T12:17:17.934Z,56.65
2017-08-13T12:19:44.344Z,56.09
2017-08-13T12:22:10.714Z,56.60
2017-08-13T12:24:37.124Z,57.26
2017-08-13T12:27:03.517Z,57.54
2017-08-13T12:29:29.913Z,56.20
2017-08-13T12:31:56.289Z,55.89
2017-08-13T12:34:22.677Z,55.50
2017-08-13T12:36:49.067Z,55.75
2017-08-13T12:39:15.450Z,54.86
2017-08-13T12:41:41.985Z,55.16
2017-08-13T12:44:08.393Z,53.87
2017-08-13T12:46:34.891Z,54.32
2017-08-13T12:49:01.300Z,51.31
2017-08-13T12:51:27.701Z,50.78
2017-08-13T12:53:54.145Z,51.83
2017-08-13T12:56:20.562Z,53.19
2017-08-13T12:58:46.961Z,54.42
2017-08-13T13:01:13.357Z,54.00
2017-08-13T13:03:39.767Z,52.81
2017-08-13T13:06:06.361Z,52.77
2017-08-13T13:08:33.336Z,52.89
2017-08-13T13:10:59.718Z,51.16
2017-08-13T13:13:26.104Z,50.86
2017-08-13T13:15:52.495Z,49.37
2017-08-13T13:18:18.884Z,48.55
2017-08-13T13:20:45.321Z,51.11
2017-08-13T13:23:11.735Z,53.13
2017-08-13T13:25:38.132Z,52.39
2017-08-13T13:28:04.547Z,48.14
2017-08-13T13:30:30.962Z,51.49
2017-08-13T13:32:57.316Z,51.94
2017-08-13T13:35:23.718Z,52.50
2017-08-13T13:37:50.107Z,50.68
2017-08-13T13:40:16.501Z,48.87
2017-08-13T13:42:42.938Z,47.71
2017-08-13T13:45:09.323Z,47.47
2017-08-13T13:47:35.730Z,48.04
2017-08-13T13:50:02.105Z,49.63
2017-08-13T13:52:28.484Z,49.46
2017-08-13T13:54:54.914Z,50.87
2017-08-13T13:57:21.302Z,50.38
2017-08-13T13:59:47.668Z,51.11
2017-08-13T14:02:14.049Z,51.31
2017-08-13T14:04:40.399Z,51.05
2017-08-13T14:07:06.798Z,51.63
2017-08-13T14:09:33.201Z,50.17
2017-08-13T14:11:59.615Z,47.29
2017-08-13T14:14:26.049Z,47.30
2017-08-13T14:16:52.425Z,49.25
2017-08-13T14:19:18.789Z,47.11
2017-08-13T14:21:45.180Z,45.53
2017-08-13T14:24:11.609Z,48.17
2017-08-13T14:26:37.984Z,51.61
2017-08-13T14:29:04.358Z,49.98
2017-08-13T14:31:30.749Z,49.26
2017-08-13T14:33:57.129Z,44.82
2017-08-13T14:36:23.531Z,47.33
2017-08-13T14:38:49.916Z,48.42
2017-08-13T14:41:16.381Z,49.77
2017-08-13T14:43:42.800Z,50.60
2017-08-13T14:46:09.209Z,49.88
2017-08-13T14:48:35.570Z,50.36
2017-08-13T14:51:01.968Z,49.13
2017-08-13T14:53:28.382Z,48.99
2017-08-13T14:55:54.738Z,49.29
2017-08-13T14:58:21.187Z,48.82
2017-08-13T15:00:47.657Z,48.63
2017-08-13T15:03:14.052Z,50.20
2017-08-13T15:05:40.452Z,48.72
2017-08-13T15:08:06.867Z,48.09
2017-08-13T15:10:33.264Z,49.01
2017-08-13T15:12:59.653Z,47.50
2017-08-13T15:15:26.052Z,48.52
2017-08-13T15:17:52.492Z,46.71
2017-08-13T15:20:18.919Z,47.55
2017-08-13T15:22:45.310Z,49.57
2017-08-13T15:25:11.711Z,51.15
2017-08-13T15:27:38.116Z,49.49
2017-08-13T15:30:04.501Z,51.32
2017-08-13T15:32:30.897Z,50.75
2017-08-13T15:34:57.281Z,50.11
2017-08-13T15:37:23.707Z,51.33
2017-08-13T15:39:50.112Z,50.56
2017-08-13T15:42:16.511Z,50.29
2017-08-13T15:44:42.907Z,50.28
2017-08-13T15:47:09.285Z,51.51
2017-08-13T15:49:35.910Z,51.47
2017-08-13T15:52:02.289Z,52.11
2017-08-13T15:54:28.689Z,51.19
2017-08-13T15:56:55.123Z,52.58
2017-08-13T15:59:21.558Z,53.81
2017-08-13T16:01:47.945Z,54.72
2017-08-13T16:04:14.373Z,55.53
2017-08-13T16:06:40.773Z,55.82
2017-08-13T16:09:07.190Z,57.45
2017-08-13T16:11:33.601Z,57.53
2017-08-13T16:13:59.982Z,57.26
2017-08-13T16:16:26.397Z,57.02
2017-08-13T16:18:52.798Z,56.26
2017-08-13T16:21:19.202Z,55.70
2017-08-13T16:23:45.583Z,56.06
2017-08-13T16:26:11.968Z,55.95
2017-08-13T16:28:38.354Z,56.82
2017-08-13T16:31:04.741Z,57.54
2017-08-13T16:33:31.144Z,57.50
2017-08-13T16:35:57.566Z,58.36
2017-08-13T16:38:23.995Z,58.86
2017-08-13T16:40:50.377Z,58.20
2017-08-13T16:43:18.102Z,58.77
2017-08-13T16:45:44.502Z,58.47
2017-08-13T16:48:10.886Z,58.45
2017-08-13T16:50:38.333Z,58.52
2017-08-13T16:53:04.771Z,58.32
2017-08-13T16:55:31.185Z,59.26
2017-08-13T16:57:57.544Z,59.15
2017-08-13T17:00:23.941Z,58.86
2017-08-13T17:02:50.566Z,58.91
2017-08-13T17:05:16.998Z,58.42
2017-08-13T17:07:44.037Z,57.60
2017-08-13T17:10:10.413Z,57.06
2017-08-13T17:12:36.775Z,56.99
2017-08-13T17:15:03.185Z,56.66
2017-08-13T17:17:29.543Z,55.93
2017-08-13T17:19:55.932Z,55.67
2017-08-13T17:22:22.317Z,56.18
2017-08-13T17:24:48.709Z,56.49
2017-08-13T17:27:15.103Z,56.86
2017-08-13T17:29:41.484Z,57.52
2017-08-13T17:32:07.879Z,56.71
2017-08-13T17:34:34.291Z,56.63
2017-08-13T17:37:00.687Z,56.68
2017-08-13T17:39:27.099Z,56.66
2017-08-13T17:41:53.466Z,57.22
2017-08-13T17:44:19.815Z,57.06
2017-08-13T17:46:46.199Z,56.96
2017-08-13T17:49:12.612Z,57.45
2017-08-13T17:51:39.010Z,57.54
2017-08-13T17:54:05.746Z,57.75
2017-08-13T17:56:32.749Z,57.51
2017-08-13T17:58:59.272Z,57.62
2017-08-13T18:01:29.084Z,57.99
2017-08-13T18:04:01.225Z,58.75
2017-08-13T18:06:32.335Z,58.33
2017-08-13T18:09:03.049Z,58.43
2017-08-13T18:11:33.237Z,58.65
2017-08-13T18:14:05.393Z,58.77
2017-08-13T18:16:36.149Z,58.79
2017-08-13T18:19:04.428Z,59.30
2017-08-13T18:21:30.909Z,59.21
2017-08-13T18:23:57.354Z,59.63
2017-08-13T18:26:23.746Z,59.71
2017-08-13T18:28:52.058Z,60.28
2017-08-13T18:31:19.735Z,59.83
2017-08-13T18:33:46.659Z,60.51
2017-08-13T18:36:13.048Z,61.18
2017-08-13T18:38:39.936Z,61.15
2017-08-13T18:41:06.395Z,61.50
2017-08-13T18:43:32.805Z,60.82
2017-08-13T18:46:00.232Z,61.18
2017-08-13T18:48:27.221Z,61.58
2017-08-13T18:50:53.629Z,61.87
2017-08-13T18:53:20.532Z,61.93
2017-08-13T18:55:47.507Z,62.27
2017-08-13T18:58:14.230Z,62.25
2017-08-13T19:00:40.903Z,62.97
2017-08-13T19:03:07.542Z,63.16
2017-08-13T19:05:33.995Z,63.76
2017-08-13T19:08:00.444Z,64.23
2017-08-13T19:10:26.913Z,63.61
2017-08-13T19:12:53.736Z,63.29
2017-08-13T19:15:20.974Z,64.77
2017-08-13T19:17:47.969Z,64.13
2017-08-13T19:20:14.477Z,65.59
2017-08-13T19:22:41.101Z,64.82
2017-08-13T19:25:07.992Z,64.66
2017-08-13T19:27:34.407Z,65.23
2017-08-13T19:30:00.804Z,65.13
2017-08-13T19:32:27.206Z,64.69
2017-08-13T19:34:53.599Z,66.41
2017-08-13T19:37:20.535Z,66.40
2017-08-13T19:39:47.368Z,66.07
2017-08-13T19:42:13.792Z,65.77
2017-08-13T19:44:40.144Z,64.39
2017-08-13T19:47:06.595Z,65.66
2017-08-13T19:49:32.991Z,66.83
2017-08-13T19:51:59.396Z,66.28
2017-08-13T19:54:26.380Z,66.55
2017-08-13T19:56:52.799Z,66.42
2017-08-13T19:59:24.205Z,66.78
2017-08-13T20:01:53.966Z,66.26
2017-08-13T20:04:25.227Z,65.81
2017-08-13T20:06:55.463Z,66.17
2017-08-13T20:09:21.971Z,65.89
2017-08-13T20:11:48.377Z,65.67
2017-08-13T20:14:15.225Z,66.50
2017-08-13T20:16:41.776Z,66.29
2017-08-13T20:19:08.438Z,66.01
2017-08-13T20:21:35.418Z,65.87
2017-08-13T20:24:02.276Z,66.21
2017-08-13T20:26:28.766Z,66.29
2017-08-13T20:28:55.703Z,66.44
2017-08-13T20:31:22.480Z,66.26
2017-08-13T20:33:49.394Z,66.92
2017-08-13T20:36:15.825Z,66.63
2017-08-13T20:38:42.315Z,66.59
2017-08-13T20:41:08.709Z,67.92
2017-08-13T20:43:35.239Z,67.42
2017-08-13T20:46:01.801Z,67.19
2017-08-13T20:48:28.236Z,66.78
2017-08-13T20:50:54.786Z,66.34
2017-08-13T20:53:21.159Z,66.92
2017-08-13T20:55:47.797Z,67.52
2017-08-13T20:58:14.825Z,67.56
2017-08-13T21:00:41.307Z,67.36
2017-08-13T21:03:07.752Z,67.19
2017-08-13T21:05:34.223Z,68.28
2017-08-13T21:08:00.622Z,69.17
2017-08-13T21:10:27.533Z,69.64
2017-08-13T21:12:54.429Z,68.56
2017-08-13T21:15:23.805Z,68.28
2017-08-13T21:17:50.371Z,67.74
2017-08-13T21:20:16.778Z,67.38
2017-08-13T21:22:43.181Z,67.69
2017-08-13T21:25:09.564Z,67.33
2017-08-13T21:27:35.956Z,67.82
2017-08-13T21:30:02.520Z,67.56
2017-08-13T21:32:29.463Z,67.22
2017-08-13T21:34:56.387Z,67.16
2017-08-13T21:37:23.272Z,66.84
2017-08-13T21:39:49.655Z,68.46
2017-08-13T21:42:16.072Z,68.71
2017-08-13T21:44:42.505Z,68.94
2017-08-13T21:47:08.869Z,69.06
2017-08-13T21:49:35.974Z,69.25
2017-08-13T21:52:02.372Z,69.21
2017-08-13T21:54:29.357Z,70.34
2017-08-13T21:56:55.795Z,70.50
2017-08-13T21:59:22.367Z,69.65
2017-08-13T22:01:48.790Z,68.70
2017-08-13T22:04:15.402Z,68.36
2017-08-13T22:06:43.097Z,67.96
2017-08-13T22:09:09.537Z,67.91
2017-08-13T22:11:36.241Z,67.79
2017-08-13T22:14:03.057Z,68.33
2017-08-13T22:16:29.930Z,67.87
2017-08-13T22:18:56.380Z,67.86
2017-08-13T22:21:23.858Z,67.79
2017-08-13T22:23:50.293Z,67.70
2017-08-13T22:26:16.660Z,67.66
2017-08-13T22:28:43.049Z,68.59
2017-08-13T22:31:10.123Z,69.70
2017-08-13T22:33:36.533Z,70.70
2017-08-13T22:36:02.913Z,69.61
2017-08-13T22:38:29.333Z,69.41
2017-08-13T22:40:55.715Z,69.19
2017-08-13T22:43:22.081Z,69.86
2017-08-13T22:45:48.462Z,68.79
2017-08-13T22:48:14.851Z,68.21
2017-08-13T22:50:41.489Z,67.74
2017-08-13T22:53:08.454Z,69.41
2017-08-13T22:55:35.182Z,70.74
2017-08-13T22:58:01.547Z,71.35
2017-08-13T23:00:28.213Z,71.35
2017-08-13T23:02:54.634Z,70.64
2017-08-13T23:05:21.055Z,70.66
2017-08-13T23:07:47.463Z,69.64
2017-08-13T23:10:13.916Z,69.81
2017-08-13T23:12:40.298Z,69.41
2017-08-13T23:15:06.736Z,68.91
2017-08-13T23:17:33.178Z,69.65
2017-08-13T23:19:59.588Z,68.97
2017-08-13T23:22:25.990Z,69.48
2017-08-13T23:24:52.388Z,69.17
2017-08-13T23:27:18.769Z,69.99
2017-08-13T23:29:45.159Z,70.26
2017-08-13T23:32:11.538Z,70.60
2017-08-13T23:34:37.952Z,70.06
2017-08-13T23:37:04.350Z,69.41
2017-08-13T23:39:30.757Z,69.38
2017-08-13T23:41:57.158Z,70.60
2017-08-13T23:44:23.564Z,69.74
2017-08-13T23:46:49.944Z,70.81
2017-08-13T23:49:16.302Z,70.79
2017-08-13T23:51:42.666Z,70.78
2017-08-13T23:54:09.037Z,70.10
2017-08-13T23:56:35.425Z,69.31
2017-08-13T23:59:01.793Z,68.90
